LHX2QA EDDM-EGLL
Flight info
| Callsign | LHX2QA |
|---|---|
| Flight time | 1h 33m |
| Altitude | 34000 |
| Route | GIVMI1N/26R GIVMI Y101 INBED DCT REKDI DCT LOHRE DCT ADKUV DCT DENUT L608 LOGAN |
| Aircraft | A319/M-SDE3FGHIRWY/LB1 |
Departure
| Time | 2026-05-07 19:05 |
|---|---|
| Airport | Munich Airport (EDDM) |
Arrival
| Time | 2026-05-07 20:39 |
|---|---|
| Airport | London Heathrow Airport (EGLL) |
| Time | Latitude | Longitude | Altitude | Speed | Heading |
|---|---|---|---|---|---|
| 2026-05-07 18:22 | 48.35283 | 11.79779 | 1487 ft | 0 kts | 83° |
| 2026-05-07 18:24 | 48.35284 | 11.79784 | 1476 ft | 0 kts | 83° |
| 2026-05-07 18:51 | 48.35281 | 11.79750 | 1483 ft | 4 kts | 83° |
| 2026-05-07 18:52 | 48.35278 | 11.79710 | 1478 ft | 4 kts | 83° |
| 2026-05-07 18:52 | 48.35276 | 11.79678 | 1477 ft | 4 kts | 81° |
| 2026-05-07 18:52 | 48.35268 | 11.79641 | 1471 ft | 4 kts | 47° |
| 2026-05-07 18:52 | 48.35247 | 11.79626 | 1485 ft | 3 kts | 353° |
| 2026-05-07 18:53 | 48.35231 | 11.79629 | 1469 ft | 0 kts | 353° |
| 2026-05-07 18:57 | 48.35232 | 11.79628 | 1469 ft | 1 kts | 353° |
| 2026-05-07 18:57 | 48.35261 | 11.79613 | 1474 ft | 8 kts | 334° |
| 2026-05-07 18:57 | 48.35325 | 11.79545 | 1483 ft | 14 kts | 340° |
| 2026-05-07 18:58 | 48.35432 | 11.79527 | 1480 ft | 16 kts | 354° |
| 2026-05-07 18:58 | 48.35548 | 11.79505 | 1481 ft | 17 kts | 351° |
| 2026-05-07 18:58 | 48.35670 | 11.79485 | 1485 ft | 18 kts | 353° |
| 2026-05-07 18:58 | 48.35800 | 11.79461 | 1480 ft | 19 kts | 353° |
| 2026-05-07 18:59 | 48.35928 | 11.79492 | 1479 ft | 19 kts | 27° |
| 2026-05-07 18:59 | 48.36061 | 11.79485 | 1475 ft | 20 kts | 353° |
| 2026-05-07 18:59 | 48.36186 | 11.79468 | 1479 ft | 15 kts | 9° |
| 2026-05-07 18:59 | 48.36225 | 11.79591 | 1485 ft | 15 kts | 86° |
| 2026-05-07 19:00 | 48.36235 | 11.79751 | 1485 ft | 16 kts | 85° |
| 2026-05-07 19:00 | 48.36248 | 11.79925 | 1485 ft | 17 kts | 82° |
| 2026-05-07 19:00 | 48.36263 | 11.80111 | 1485 ft | 19 kts | 83° |
| 2026-05-07 19:00 | 48.36278 | 11.80310 | 1485 ft | 20 kts | 84° |
| 2026-05-07 19:01 | 48.36295 | 11.80520 | 1477 ft | 21 kts | 83° |
| 2026-05-07 19:01 | 48.36312 | 11.80739 | 1476 ft | 22 kts | 83° |
| 2026-05-07 19:01 | 48.36328 | 11.80957 | 1485 ft | 21 kts | 84° |
| 2026-05-07 19:01 | 48.36344 | 11.81167 | 1482 ft | 15 kts | 78° |
| 2026-05-07 19:02 | 48.36421 | 11.81178 | 1481 ft | 15 kts | 302° |
| 2026-05-07 19:02 | 48.36463 | 11.81030 | 1481 ft | 16 kts | 293° |
| 2026-05-07 19:02 | 48.36495 | 11.80916 | 1480 ft | 0 kts | 293° |
| 2026-05-07 19:03 | 48.36497 | 11.80910 | 1479 ft | 2 kts | 293° |
| 2026-05-07 19:03 | 48.36514 | 11.80851 | 1480 ft | 11 kts | 293° |
| 2026-05-07 19:04 | 48.36549 | 11.80706 | 1485 ft | 18 kts | 281° |
| 2026-05-07 19:04 | 48.36565 | 11.80514 | 1481 ft | 9 kts | 263° |
| 2026-05-07 19:04 | 48.36565 | 11.80508 | 1476 ft | 0 kts | 263° |
| 2026-05-07 19:04 | 48.36565 | 11.80506 | 1476 ft | 1 kts | 263° |
| 2026-05-07 19:05 | 48.36548 | 11.80304 | 1485 ft | 55 kts | 263° |
| 2026-05-07 19:05 | 48.36478 | 11.79360 | 1480 ft | 123 kts | 263° |
| 2026-05-07 19:05 | 48.36355 | 11.77811 | 1591 ft | 163 kts | 264° |
| 2026-05-07 19:05 | 48.36232 | 11.76147 | 2284 ft | 159 kts | 266° |
| 2026-05-07 19:06 | 48.36119 | 11.74463 | 2841 ft | 171 kts | 266° |
| 2026-05-07 19:06 | 48.35817 | 11.70427 | 3537 ft | 219 kts | 264° |
| 2026-05-07 19:06 | 48.35814 | 11.68112 | 4224 ft | 228 kts | 284° |
| 2026-05-07 19:07 | 48.36504 | 11.65864 | 4802 ft | 250 kts | 301° |
| 2026-05-07 19:07 | 48.37446 | 11.63578 | 5577 ft | 260 kts | 301° |
| 2026-05-07 19:07 | 48.38415 | 11.61253 | 6565 ft | 263 kts | 301° |
| 2026-05-07 19:07 | 48.39388 | 11.58913 | 7524 ft | 265 kts | 300° |
| 2026-05-07 19:08 | 48.40364 | 11.56544 | 8465 ft | 267 kts | 300° |
| 2026-05-07 19:08 | 48.41343 | 11.54146 | 9411 ft | 270 kts | 299° |
| 2026-05-07 19:08 | 48.42464 | 11.51850 | 10284 ft | 277 kts | 313° |
| 2026-05-07 19:08 | 48.44175 | 11.50232 | 10637 ft | 308 kts | 335° |
| 2026-05-07 19:09 | 48.46268 | 11.49088 | 10916 ft | 331 kts | 338° |
| 2026-05-07 19:09 | 48.48485 | 11.47931 | 11483 ft | 341 kts | 338° |
| 2026-05-07 19:09 | 48.50754 | 11.46764 | 12231 ft | 346 kts | 338° |
| 2026-05-07 19:09 | 48.53048 | 11.45579 | 12995 ft | 350 kts | 338° |
| 2026-05-07 19:10 | 48.55365 | 11.44363 | 13759 ft | 354 kts | 338° |
| 2026-05-07 19:10 | 48.57702 | 11.43124 | 14439 ft | 358 kts | 338° |
| 2026-05-07 19:10 | 48.59959 | 11.41544 | 15098 ft | 358 kts | 326° |
| 2026-05-07 19:10 | 48.62054 | 11.39564 | 15784 ft | 360 kts | 325° |
| 2026-05-07 19:11 | 48.64183 | 11.37536 | 16484 ft | 363 kts | 325° |
| 2026-05-07 19:11 | 48.66326 | 11.35483 | 17168 ft | 366 kts | 325° |
| 2026-05-07 19:11 | 48.68482 | 11.33413 | 17837 ft | 369 kts | 324° |
| 2026-05-07 19:11 | 48.70668 | 11.31338 | 18488 ft | 372 kts | 325° |
| 2026-05-07 19:12 | 48.72889 | 11.29292 | 19071 ft | 375 kts | 326° |
| 2026-05-07 19:12 | 48.75143 | 11.27253 | 19646 ft | 378 kts | 326° |
| 2026-05-07 19:12 | 48.77412 | 11.25209 | 20245 ft | 381 kts | 326° |
| 2026-05-07 19:12 | 48.79699 | 11.23144 | 20835 ft | 384 kts | 326° |
| 2026-05-07 19:13 | 48.81969 | 11.21080 | 21389 ft | 387 kts | 326° |
| 2026-05-07 19:13 | 48.84287 | 11.18959 | 21940 ft | 390 kts | 326° |
| 2026-05-07 19:13 | 48.86618 | 11.16823 | 22479 ft | 393 kts | 326° |
| 2026-05-07 19:13 | 48.88971 | 11.14659 | 23009 ft | 396 kts | 326° |
| 2026-05-07 19:14 | 48.91341 | 11.12474 | 23525 ft | 399 kts | 326° |
| 2026-05-07 19:14 | 48.93724 | 11.10273 | 23969 ft | 402 kts | 326° |
| 2026-05-07 19:14 | 48.96128 | 11.08052 | 24395 ft | 405 kts | 326° |
| 2026-05-07 19:14 | 48.98550 | 11.05812 | 24812 ft | 408 kts | 326° |
| 2026-05-07 19:15 | 49.00950 | 11.03595 | 25221 ft | 411 kts | 326° |
| 2026-05-07 19:15 | 49.03404 | 11.01323 | 25643 ft | 413 kts | 326° |
| 2026-05-07 19:15 | 49.05867 | 10.99036 | 26064 ft | 416 kts | 326° |
| 2026-05-07 19:15 | 49.08351 | 10.96724 | 26482 ft | 419 kts | 326° |
| 2026-05-07 19:16 | 49.10845 | 10.94400 | 26877 ft | 421 kts | 326° |
| 2026-05-07 19:16 | 49.13360 | 10.92063 | 27265 ft | 424 kts | 327° |
| 2026-05-07 19:16 | 49.15901 | 10.89706 | 27653 ft | 427 kts | 327° |
| 2026-05-07 19:16 | 49.18446 | 10.87342 | 28034 ft | 429 kts | 327° |
| 2026-05-07 19:17 | 49.21005 | 10.84957 | 28425 ft | 432 kts | 327° |
| 2026-05-07 19:17 | 49.23582 | 10.82551 | 28788 ft | 435 kts | 327° |
| 2026-05-07 19:17 | 49.26137 | 10.80162 | 29142 ft | 437 kts | 327° |
| 2026-05-07 19:17 | 49.28740 | 10.77722 | 29495 ft | 439 kts | 327° |
| 2026-05-07 19:18 | 49.31352 | 10.75270 | 29854 ft | 441 kts | 327° |
| 2026-05-07 19:18 | 49.33982 | 10.72808 | 30060 ft | 443 kts | 327° |
| 2026-05-07 19:18 | 49.39271 | 10.67881 | 30390 ft | 446 kts | 327° |
| 2026-05-07 19:19 | 49.41928 | 10.65406 | 30767 ft | 446 kts | 327° |
| 2026-05-07 19:19 | 49.44577 | 10.62932 | 31173 ft | 445 kts | 327° |
| 2026-05-07 19:19 | 49.47184 | 10.60489 | 31556 ft | 444 kts | 327° |
| 2026-05-07 19:19 | 49.49820 | 10.58015 | 31931 ft | 444 kts | 327° |
| 2026-05-07 19:20 | 49.52457 | 10.55537 | 32325 ft | 443 kts | 327° |
| 2026-05-07 19:20 | 49.55086 | 10.53067 | 32730 ft | 443 kts | 327° |
| 2026-05-07 19:20 | 49.57718 | 10.50590 | 33120 ft | 442 kts | 327° |
| 2026-05-07 19:20 | 49.60338 | 10.48119 | 33504 ft | 441 kts | 327° |
| 2026-05-07 19:21 | 49.62935 | 10.45603 | 33885 ft | 440 kts | 323° |
| 2026-05-07 19:21 | 49.65304 | 10.42610 | 34054 ft | 438 kts | 314° |
| 2026-05-07 19:21 | 49.69034 | 10.35260 | 34083 ft | 435 kts | 303° |
| 2026-05-07 19:22 | 49.72438 | 10.27524 | 34084 ft | 434 kts | 303° |
| 2026-05-07 19:22 | 49.75821 | 10.19855 | 34083 ft | 434 kts | 303° |
| 2026-05-07 19:23 | 49.79218 | 10.12113 | 34085 ft | 434 kts | 303° |
| 2026-05-07 19:23 | 49.82615 | 10.04361 | 34082 ft | 434 kts | 303° |
| 2026-05-07 19:24 | 49.86006 | 9.96600 | 34078 ft | 434 kts | 303° |
| 2026-05-07 19:24 | 49.89363 | 9.88878 | 34071 ft | 434 kts | 303° |
| 2026-05-07 19:25 | 49.92734 | 9.81098 | 34068 ft | 434 kts | 303° |
| 2026-05-07 19:25 | 49.96103 | 9.73305 | 34066 ft | 434 kts | 303° |
| 2026-05-07 19:26 | 49.98902 | 9.66823 | 34066 ft | 434 kts | 303° |
| 2026-05-07 19:26 | 50.02263 | 9.59009 | 34065 ft | 435 kts | 303° |
| 2026-05-07 19:27 | 50.05589 | 9.51153 | 34073 ft | 435 kts | 299° |
| 2026-05-07 19:27 | 50.07796 | 9.42433 | 34077 ft | 434 kts | 285° |
| 2026-05-07 19:28 | 50.09388 | 9.33368 | 34076 ft | 434 kts | 285° |
| 2026-05-07 19:28 | 50.10993 | 9.24311 | 34080 ft | 434 kts | 285° |
| 2026-05-07 19:29 | 50.12580 | 9.15300 | 34074 ft | 433 kts | 285° |
| 2026-05-07 19:29 | 50.14156 | 9.06243 | 34078 ft | 433 kts | 285° |
| 2026-05-07 19:30 | 50.15729 | 8.97172 | 34080 ft | 433 kts | 285° |
| 2026-05-07 19:30 | 50.17293 | 8.88107 | 34083 ft | 433 kts | 285° |
| 2026-05-07 19:31 | 50.18853 | 8.79036 | 34084 ft | 432 kts | 285° |
| 2026-05-07 19:31 | 50.20396 | 8.69976 | 34082 ft | 432 kts | 285° |
| 2026-05-07 19:32 | 50.21921 | 8.60957 | 34086 ft | 431 kts | 285° |
| 2026-05-07 19:32 | 50.23462 | 8.51834 | 34081 ft | 431 kts | 285° |
| 2026-05-07 19:33 | 50.24979 | 8.42825 | 34077 ft | 431 kts | 284° |
| 2026-05-07 19:33 | 50.26494 | 8.33750 | 34072 ft | 431 kts | 284° |
| 2026-05-07 19:34 | 50.27996 | 8.24681 | 34074 ft | 431 kts | 284° |
| 2026-05-07 19:34 | 50.29496 | 8.15604 | 34073 ft | 431 kts | 284° |
| 2026-05-07 19:35 | 50.30988 | 8.06534 | 34075 ft | 431 kts | 284° |
| 2026-05-07 19:35 | 50.32478 | 7.97434 | 34076 ft | 431 kts | 284° |
| 2026-05-07 19:36 | 50.33963 | 7.88324 | 34076 ft | 431 kts | 284° |
| 2026-05-07 19:36 | 50.35426 | 7.79269 | 34070 ft | 431 kts | 283° |
| 2026-05-07 19:37 | 50.36893 | 7.70151 | 34070 ft | 432 kts | 283° |
| 2026-05-07 19:37 | 50.38594 | 7.61143 | 34073 ft | 432 kts | 291° |
| 2026-05-07 19:38 | 50.40809 | 7.52369 | 34074 ft | 432 kts | 291° |
| 2026-05-07 19:38 | 50.43028 | 7.43604 | 34071 ft | 432 kts | 291° |
| 2026-05-07 19:39 | 50.45224 | 7.34892 | 34069 ft | 432 kts | 290° |
| 2026-05-07 19:39 | 50.47416 | 7.26118 | 34066 ft | 432 kts | 290° |
| 2026-05-07 19:40 | 50.49605 | 7.17334 | 34066 ft | 432 kts | 290° |
| 2026-05-07 19:40 | 50.51792 | 7.08540 | 34066 ft | 432 kts | 290° |
| 2026-05-07 19:41 | 50.53971 | 6.99751 | 34067 ft | 431 kts | 290° |
| 2026-05-07 19:41 | 50.56114 | 6.91040 | 34067 ft | 431 kts | 290° |
| 2026-05-07 19:42 | 50.58262 | 6.82238 | 34072 ft | 431 kts | 290° |
| 2026-05-07 19:42 | 50.60396 | 6.73430 | 34074 ft | 431 kts | 289° |
| 2026-05-07 19:43 | 50.62511 | 6.64675 | 34077 ft | 431 kts | 289° |
| 2026-05-07 19:43 | 50.64631 | 6.55854 | 34079 ft | 431 kts | 289° |
| 2026-05-07 19:44 | 50.66744 | 6.47006 | 34079 ft | 431 kts | 289° |
| 2026-05-07 19:44 | 50.68849 | 6.38162 | 34083 ft | 430 kts | 289° |
| 2026-05-07 19:45 | 50.70945 | 6.29329 | 34082 ft | 430 kts | 289° |
| 2026-05-07 19:45 | 50.73035 | 6.20478 | 34085 ft | 430 kts | 289° |
| 2026-05-07 19:46 | 50.75123 | 6.11617 | 34087 ft | 430 kts | 289° |
| 2026-05-07 19:46 | 50.77193 | 6.02808 | 34090 ft | 430 kts | 289° |
| 2026-05-07 19:47 | 50.79265 | 5.93940 | 34088 ft | 429 kts | 289° |
| 2026-05-07 19:47 | 50.81327 | 5.85065 | 34087 ft | 429 kts | 289° |
| 2026-05-07 19:48 | 50.83378 | 5.76213 | 34086 ft | 428 kts | 289° |
| 2026-05-07 19:48 | 50.85403 | 5.67405 | 34083 ft | 428 kts | 289° |
| 2026-05-07 19:49 | 50.87438 | 5.58539 | 34080 ft | 428 kts | 288° |
| 2026-05-07 19:49 | 50.89466 | 5.49690 | 34079 ft | 427 kts | 288° |
| 2026-05-07 19:50 | 50.91484 | 5.40831 | 34073 ft | 427 kts | 288° |
| 2026-05-07 19:50 | 50.93492 | 5.31962 | 34073 ft | 427 kts | 288° |
| 2026-05-07 19:51 | 50.95495 | 5.23088 | 34078 ft | 427 kts | 288° |
| 2026-05-07 19:51 | 50.97494 | 5.14206 | 34079 ft | 427 kts | 288° |
| 2026-05-07 19:52 | 50.99489 | 5.05323 | 34079 ft | 427 kts | 288° |
| 2026-05-07 19:52 | 51.01455 | 4.96486 | 34084 ft | 427 kts | 288° |
| 2026-05-07 19:53 | 51.03431 | 4.87583 | 34082 ft | 427 kts | 288° |
| 2026-05-07 19:53 | 51.05403 | 4.78679 | 34079 ft | 427 kts | 288° |
| 2026-05-07 19:54 | 51.07363 | 4.69767 | 34079 ft | 427 kts | 288° |
| 2026-05-07 19:54 | 51.09319 | 4.60840 | 34082 ft | 427 kts | 288° |
| 2026-05-07 19:55 | 51.11265 | 4.51903 | 34085 ft | 427 kts | 288° |
| 2026-05-07 19:55 | 51.13198 | 4.43019 | 34085 ft | 427 kts | 288° |
| 2026-05-07 19:56 | 51.15130 | 4.34081 | 34085 ft | 427 kts | 287° |
| 2026-05-07 19:56 | 51.17056 | 4.25138 | 34088 ft | 426 kts | 287° |
| 2026-05-07 19:57 | 51.18965 | 4.16252 | 34082 ft | 426 kts | 287° |
| 2026-05-07 19:57 | 51.20883 | 4.07317 | 34079 ft | 425 kts | 287° |
| 2026-05-07 19:58 | 51.22778 | 3.98375 | 34071 ft | 425 kts | 287° |
| 2026-05-07 19:58 | 51.24661 | 3.89433 | 34069 ft | 425 kts | 287° |
| 2026-05-07 19:59 | 51.26544 | 3.80482 | 34070 ft | 425 kts | 287° |
| 2026-05-07 19:59 | 51.28418 | 3.71536 | 34076 ft | 425 kts | 287° |
| 2026-05-07 20:00 | 51.30294 | 3.62577 | 34078 ft | 425 kts | 287° |
| 2026-05-07 20:00 | 51.32150 | 3.53659 | 34076 ft | 425 kts | 287° |
| 2026-05-07 20:01 | 51.34011 | 3.44686 | 34080 ft | 425 kts | 287° |
| 2026-05-07 20:01 | 51.35865 | 3.35700 | 34082 ft | 425 kts | 287° |
| 2026-05-07 20:02 | 51.37651 | 3.26678 | 34082 ft | 424 kts | 285° |
| 2026-05-07 20:02 | 51.39371 | 3.17644 | 34082 ft | 424 kts | 285° |
| 2026-05-07 20:03 | 51.41110 | 3.08617 | 34081 ft | 424 kts | 287° |
| 2026-05-07 20:03 | 51.42772 | 2.99636 | 34077 ft | 423 kts | 282° |
| 2026-05-07 20:04 | 51.44085 | 2.90445 | 34083 ft | 423 kts | 281° |
| 2026-05-07 20:04 | 51.45323 | 2.81231 | 34081 ft | 422 kts | 281° |
| 2026-05-07 20:05 | 51.46590 | 2.72035 | 34082 ft | 422 kts | 281° |
| 2026-05-07 20:05 | 51.47880 | 2.62846 | 34085 ft | 422 kts | 281° |
| 2026-05-07 20:06 | 51.49161 | 2.53669 | 34092 ft | 422 kts | 281° |
| 2026-05-07 20:06 | 51.50429 | 2.44488 | 34082 ft | 421 kts | 281° |
| 2026-05-07 20:07 | 51.51063 | 2.39907 | 33518 ft | 420 kts | 281° |
| 2026-05-07 20:07 | 51.51699 | 2.35333 | 32624 ft | 421 kts | 281° |
| 2026-05-07 20:07 | 51.52342 | 2.30720 | 31835 ft | 423 kts | 281° |
| 2026-05-07 20:07 | 51.52984 | 2.26109 | 31565 ft | 425 kts | 281° |
| 2026-05-07 20:08 | 51.53626 | 2.21478 | 31311 ft | 426 kts | 281° |
| 2026-05-07 20:08 | 51.54269 | 2.16816 | 31057 ft | 427 kts | 281° |
| 2026-05-07 20:08 | 51.54909 | 2.12152 | 30718 ft | 427 kts | 281° |
| 2026-05-07 20:08 | 51.55544 | 2.07511 | 30221 ft | 424 kts | 281° |
| 2026-05-07 20:09 | 51.56172 | 2.02909 | 29665 ft | 418 kts | 281° |
| 2026-05-07 20:09 | 51.56787 | 1.98388 | 29034 ft | 412 kts | 281° |
| 2026-05-07 20:09 | 51.57394 | 1.93904 | 28418 ft | 407 kts | 281° |
| 2026-05-07 20:10 | 51.58662 | 1.85202 | 27241 ft | 400 kts | 290° |
| 2026-05-07 20:10 | 51.60095 | 1.81385 | 27022 ft | 391 kts | 309° |
| 2026-05-07 20:10 | 51.62105 | 1.78571 | 26671 ft | 387 kts | 321° |
| 2026-05-07 20:10 | 51.64283 | 1.76047 | 26189 ft | 384 kts | 322° |
| 2026-05-07 20:11 | 51.66450 | 1.73557 | 25712 ft | 381 kts | 322° |
| 2026-05-07 20:11 | 51.68607 | 1.71077 | 25214 ft | 378 kts | 322° |
| 2026-05-07 20:11 | 51.70744 | 1.68617 | 24657 ft | 376 kts | 322° |
| 2026-05-07 20:11 | 51.72861 | 1.66173 | 24104 ft | 373 kts | 322° |
| 2026-05-07 20:12 | 51.74961 | 1.63741 | 23543 ft | 371 kts | 322° |
| 2026-05-07 20:12 | 51.76347 | 1.62129 | 23147 ft | 369 kts | 321° |
| 2026-05-07 20:12 | 51.78213 | 1.59354 | 22610 ft | 363 kts | 306° |
| 2026-05-07 20:12 | 51.79467 | 1.55815 | 22115 ft | 357 kts | 288° |
| 2026-05-07 20:13 | 51.79969 | 1.51941 | 21615 ft | 352 kts | 271° |
| 2026-05-07 20:13 | 51.79717 | 1.48096 | 21120 ft | 349 kts | 255° |
| 2026-05-07 20:13 | 51.79064 | 1.44326 | 20605 ft | 348 kts | 253° |
| 2026-05-07 20:13 | 51.78407 | 1.40575 | 20119 ft | 346 kts | 253° |
| 2026-05-07 20:14 | 51.77753 | 1.36841 | 19659 ft | 344 kts | 253° |
| 2026-05-07 20:14 | 51.77104 | 1.33130 | 19203 ft | 343 kts | 253° |
| 2026-05-07 20:14 | 51.76459 | 1.29431 | 18751 ft | 341 kts | 253° |
| 2026-05-07 20:14 | 51.75815 | 1.25753 | 18313 ft | 339 kts | 253° |
| 2026-05-07 20:15 | 51.75174 | 1.22100 | 17825 ft | 337 kts | 253° |
| 2026-05-07 20:15 | 51.74537 | 1.18469 | 17357 ft | 335 kts | 253° |
| 2026-05-07 20:15 | 51.73910 | 1.14894 | 16904 ft | 333 kts | 253° |
| 2026-05-07 20:15 | 51.73281 | 1.11307 | 16466 ft | 331 kts | 253° |
| 2026-05-07 20:16 | 51.72650 | 1.07737 | 16039 ft | 329 kts | 253° |
| 2026-05-07 20:16 | 51.72019 | 1.04200 | 15624 ft | 328 kts | 253° |
| 2026-05-07 20:16 | 51.71390 | 1.00670 | 15207 ft | 326 kts | 253° |
| 2026-05-07 20:16 | 51.70767 | 0.97160 | 14798 ft | 324 kts | 253° |
| 2026-05-07 20:17 | 51.70292 | 0.93625 | 14539 ft | 319 kts | 262° |
| 2026-05-07 20:17 | 51.70062 | 0.90119 | 14414 ft | 309 kts | 262° |
| 2026-05-07 20:17 | 51.69832 | 0.86716 | 14229 ft | 302 kts | 262° |
| 2026-05-07 20:17 | 51.69597 | 0.83362 | 13937 ft | 299 kts | 262° |
| 2026-05-07 20:18 | 51.69363 | 0.80081 | 13593 ft | 298 kts | 262° |
| 2026-05-07 20:18 | 51.69126 | 0.76773 | 13227 ft | 296 kts | 262° |
| 2026-05-07 20:18 | 51.68889 | 0.73484 | 12872 ft | 295 kts | 262° |
| 2026-05-07 20:18 | 51.68653 | 0.70212 | 12508 ft | 293 kts | 262° |
| 2026-05-07 20:19 | 51.68418 | 0.66956 | 12152 ft | 292 kts | 262° |
| 2026-05-07 20:19 | 51.68185 | 0.63720 | 11799 ft | 290 kts | 262° |
| 2026-05-07 20:19 | 51.67952 | 0.60495 | 11446 ft | 289 kts | 262° |
| 2026-05-07 20:19 | 51.67721 | 0.57297 | 11050 ft | 287 kts | 262° |
| 2026-05-07 20:20 | 51.67491 | 0.54110 | 10645 ft | 285 kts | 262° |
| 2026-05-07 20:20 | 51.67262 | 0.50948 | 10238 ft | 283 kts | 262° |
| 2026-05-07 20:20 | 51.67034 | 0.47805 | 9816 ft | 282 kts | 262° |
| 2026-05-07 20:20 | 51.66809 | 0.44690 | 9524 ft | 274 kts | 262° |
| 2026-05-07 20:21 | 51.66593 | 0.41751 | 9393 ft | 261 kts | 262° |
| 2026-05-07 20:21 | 51.66385 | 0.38910 | 9237 ft | 250 kts | 262° |
| 2026-05-07 20:21 | 51.66181 | 0.36160 | 8936 ft | 245 kts | 262° |
| 2026-05-07 20:21 | 51.65978 | 0.33446 | 8581 ft | 243 kts | 262° |
| 2026-05-07 20:22 | 51.65777 | 0.30745 | 8229 ft | 242 kts | 262° |
| 2026-05-07 20:22 | 51.65578 | 0.28068 | 8077 ft | 241 kts | 262° |
| 2026-05-07 20:22 | 51.65373 | 0.25374 | 8083 ft | 242 kts | 262° |
| 2026-05-07 20:22 | 51.65169 | 0.22684 | 8083 ft | 242 kts | 262° |
| 2026-05-07 20:23 | 51.64964 | 0.19988 | 8083 ft | 242 kts | 262° |
| 2026-05-07 20:23 | 51.64758 | 0.17290 | 8084 ft | 242 kts | 262° |
| 2026-05-07 20:23 | 51.64557 | 0.14627 | 8082 ft | 243 kts | 263° |
| 2026-05-07 20:23 | 51.64443 | 0.11910 | 8086 ft | 243 kts | 266° |
| 2026-05-07 20:24 | 51.64356 | 0.09198 | 8085 ft | 242 kts | 266° |
| 2026-05-07 20:24 | 51.64272 | 0.06492 | 8084 ft | 242 kts | 266° |
| 2026-05-07 20:24 | 51.64188 | 0.03786 | 8084 ft | 242 kts | 266° |
| 2026-05-07 20:24 | 51.64105 | 0.01075 | 8084 ft | 242 kts | 266° |
| 2026-05-07 20:25 | 51.64022 | -0.01629 | 8079 ft | 242 kts | 266° |
| 2026-05-07 20:25 | 51.63938 | -0.04328 | 8086 ft | 242 kts | 266° |
| 2026-05-07 20:25 | 51.63853 | -0.07038 | 8062 ft | 242 kts | 266° |
| 2026-05-07 20:25 | 51.63768 | -0.09702 | 8060 ft | 242 kts | 266° |
| 2026-05-07 20:26 | 51.63681 | -0.12406 | 8060 ft | 242 kts | 266° |
| 2026-05-07 20:26 | 51.63594 | -0.15105 | 8049 ft | 241 kts | 266° |
| 2026-05-07 20:26 | 51.63504 | -0.17796 | 7747 ft | 240 kts | 266° |
| 2026-05-07 20:26 | 51.63413 | -0.20468 | 7382 ft | 239 kts | 266° |
| 2026-05-07 20:27 | 51.63317 | -0.23130 | 7100 ft | 237 kts | 266° |
| 2026-05-07 20:27 | 51.63218 | -0.25791 | 7052 ft | 238 kts | 266° |
| 2026-05-07 20:27 | 51.63117 | -0.28464 | 7056 ft | 240 kts | 266° |
| 2026-05-07 20:27 | 51.63015 | -0.31141 | 7060 ft | 239 kts | 266° |
| 2026-05-07 20:28 | 51.62913 | -0.33818 | 7059 ft | 239 kts | 266° |
| 2026-05-07 20:28 | 51.62811 | -0.36496 | 7086 ft | 239 kts | 266° |
| 2026-05-07 20:28 | 51.62710 | -0.39135 | 7082 ft | 239 kts | 266° |
| 2026-05-07 20:28 | 51.62608 | -0.41806 | 7084 ft | 239 kts | 266° |
| 2026-05-07 20:29 | 51.62505 | -0.44509 | 7086 ft | 239 kts | 266° |
| 2026-05-07 20:29 | 51.62403 | -0.47173 | 7082 ft | 239 kts | 266° |
| 2026-05-07 20:29 | 51.62301 | -0.49813 | 7085 ft | 239 kts | 266° |
| 2026-05-07 20:29 | 51.62197 | -0.52479 | 7080 ft | 238 kts | 266° |
| 2026-05-07 20:30 | 51.62095 | -0.55142 | 7084 ft | 238 kts | 266° |
| 2026-05-07 20:30 | 51.61992 | -0.57796 | 6880 ft | 236 kts | 266° |
| 2026-05-07 20:30 | 51.61888 | -0.60439 | 6510 ft | 237 kts | 266° |
| 2026-05-07 20:30 | 51.61760 | -0.63084 | 6120 ft | 237 kts | 261° |
| 2026-05-07 20:31 | 51.61334 | -0.65641 | 5737 ft | 236 kts | 252° |
| 2026-05-07 20:31 | 51.60826 | -0.68164 | 5366 ft | 236 kts | 251° |
| 2026-05-07 20:31 | 51.60316 | -0.70677 | 5002 ft | 236 kts | 251° |
| 2026-05-07 20:31 | 51.59688 | -0.73110 | 4641 ft | 235 kts | 242° |
| 2026-05-07 20:32 | 51.58942 | -0.75438 | 4299 ft | 234 kts | 241° |
| 2026-05-07 20:32 | 51.58197 | -0.77712 | 4023 ft | 231 kts | 241° |
| 2026-05-07 20:32 | 51.57398 | -0.79957 | 3975 ft | 231 kts | 230° |
| 2026-05-07 20:32 | 51.56163 | -0.81372 | 3978 ft | 211 kts | 195° |
| 2026-05-07 20:33 | 51.54778 | -0.81709 | 3979 ft | 194 kts | 182° |
| 2026-05-07 20:33 | 51.53453 | -0.81835 | 3982 ft | 189 kts | 181° |
| 2026-05-07 20:33 | 51.52144 | -0.81937 | 3984 ft | 188 kts | 181° |
| 2026-05-07 20:33 | 51.50841 | -0.81947 | 3980 ft | 187 kts | 168° |
| 2026-05-07 20:34 | 51.49741 | -0.80956 | 3829 ft | 182 kts | 131° |
| 2026-05-07 20:34 | 51.49011 | -0.79344 | 3547 ft | 182 kts | 122° |
| 2026-05-07 20:34 | 51.48328 | -0.77594 | 3235 ft | 183 kts | 121° |
| 2026-05-07 20:34 | 51.47743 | -0.75801 | 3025 ft | 181 kts | 107° |
| 2026-05-07 20:35 | 51.47618 | -0.73809 | 3000 ft | 183 kts | 89° |
| 2026-05-07 20:35 | 51.47631 | -0.71757 | 2923 ft | 184 kts | 90° |
| 2026-05-07 20:35 | 51.47643 | -0.69722 | 2728 ft | 180 kts | 90° |
| 2026-05-07 20:35 | 51.47654 | -0.67754 | 2504 ft | 171 kts | 90° |
| 2026-05-07 20:36 | 51.47665 | -0.65875 | 2282 ft | 166 kts | 90° |
| 2026-05-07 20:36 | 51.47675 | -0.64037 | 2059 ft | 163 kts | 90° |
| 2026-05-07 20:36 | 51.47685 | -0.62220 | 1836 ft | 163 kts | 91° |
| 2026-05-07 20:36 | 51.47694 | -0.60431 | 1627 ft | 162 kts | 91° |
| 2026-05-07 20:37 | 51.47703 | -0.58629 | 1399 ft | 162 kts | 90° |
| 2026-05-07 20:37 | 51.47711 | -0.56832 | 1177 ft | 161 kts | 90° |
| 2026-05-07 20:37 | 51.47720 | -0.55077 | 946 ft | 149 kts | 91° |
| 2026-05-07 20:37 | 51.47727 | -0.53498 | 738 ft | 135 kts | 91° |
| 2026-05-07 20:38 | 51.47730 | -0.52026 | 570 ft | 129 kts | 91° |
| 2026-05-07 20:38 | 51.47741 | -0.50605 | 372 ft | 127 kts | 91° |
| 2026-05-07 20:38 | 51.47748 | -0.49201 | 210 ft | 125 kts | 91° |
| 2026-05-07 20:38 | 51.47752 | -0.47821 | 94 ft | 121 kts | 90° |
| 2026-05-07 20:39 | 51.47755 | -0.46613 | 91 ft | 86 kts | 89° |
| 2026-05-07 20:39 | 51.47739 | -0.46193 | 89 ft | 13 kts | 125° |
| 2026-05-07 20:39 | 51.47663 | -0.46103 | 89 ft | 14 kts | 148° |
| 2026-05-07 20:39 | 51.47630 | -0.46065 | 87 ft | 3 kts | 146° |
| 2026-05-07 20:40 | 51.47624 | -0.46059 | 90 ft | 1 kts | 143° |
| 2026-05-07 20:40 | 51.47615 | -0.46043 | 87 ft | 4 kts | 130° |
| 2026-05-07 20:40 | 51.47597 | -0.45975 | 87 ft | 9 kts | 96° |
| 2026-05-07 20:40 | 51.47595 | -0.45843 | 90 ft | 13 kts | 89° |
| 2026-05-07 20:41 | 51.47596 | -0.45689 | 88 ft | 14 kts | 89° |
| 2026-05-07 20:41 | 51.47596 | -0.45524 | 87 ft | 15 kts | 90° |
| 2026-05-07 20:41 | 51.47597 | -0.45348 | 87 ft | 16 kts | 90° |
| 2026-05-07 20:41 | 51.47597 | -0.45162 | 87 ft | 17 kts | 89° |
| 2026-05-07 20:42 | 51.47600 | -0.44967 | 87 ft | 18 kts | 90° |
| 2026-05-07 20:42 | 51.47599 | -0.44806 | 87 ft | 13 kts | 90° |
| 2026-05-07 20:42 | 51.47578 | -0.44669 | 89 ft | 13 kts | 150° |
| 2026-05-07 20:42 | 51.47502 | -0.44610 | 88 ft | 13 kts | 118° |
| 2026-05-07 20:43 | 51.47423 | -0.44560 | 87 ft | 14 kts | 181° |
| 2026-05-07 20:43 | 51.47324 | -0.44561 | 87 ft | 15 kts | 180° |
| 2026-05-07 20:43 | 51.47218 | -0.44557 | 87 ft | 16 kts | 178° |
| 2026-05-07 20:43 | 51.47105 | -0.44560 | 87 ft | 17 kts | 179° |
| 2026-05-07 20:44 | 51.46986 | -0.44556 | 87 ft | 18 kts | 179° |
| 2026-05-07 20:44 | 51.46861 | -0.44555 | 87 ft | 18 kts | 181° |
| 2026-05-07 20:44 | 51.46752 | -0.44612 | 89 ft | 17 kts | 255° |
| 2026-05-07 20:44 | 51.46751 | -0.44811 | 87 ft | 18 kts | 269° |
| 2026-05-07 20:45 | 51.46753 | -0.44965 | 87 ft | 8 kts | 284° |
| 2026-05-07 20:45 | 51.46802 | -0.44981 | 87 ft | 8 kts | 360° |
| 2026-05-07 20:45 | 51.46827 | -0.44981 | 87 ft | 1 kts | 360° |
| 2026-05-07 20:45 | 51.46830 | -0.44981 | 87 ft | 0 kts | 360° |